sensor_id;sensor_type;location;lat;lon;timestamp;P1;durP1;ratioP1;P2;durP2;ratioP2
72439;SDS011;60446;50.752;4.352;2023-04-01T00:00:52;5.63;;;0.68;;
72439;SDS011;60446;50.752;4.352;2023-04-01T00:03:20;5.55;;;0.80;;
72439;SDS011;60446;50.752;4.352;2023-04-01T00:05:48;8.77;;;0.60;;
72439;SDS011;60446;50.752;4.352;2023-04-01T00:08:16;5.25;;;0.88;;
72439;SDS011;60446;50.752;4.352;2023-04-01T00:10:44;6.65;;;0.60;;
72439;SDS011;60446;50.752;4.352;2023-04-01T00:13:12;7.10;;;1.08;;
72439;SDS011;60446;50.752;4.352;2023-04-01T00:15:39;5.97;;;0.82;;
72439;SDS011;60446;50.752;4.352;2023-04-01T00:18:07;4.80;;;0.50;;
72439;SDS011;60446;50.752;4.352;2023-04-01T00:20:35;4.32;;;0.47;;
72439;SDS011;60446;50.752;4.352;2023-04-01T00:23:03;6.20;;;0.77;;
72439;SDS011;60446;50.752;4.352;2023-04-01T00:25:31;3.65;;;0.40;;
72439;SDS011;60446;50.752;4.352;2023-04-01T00:27:58;6.80;;;0.70;;
72439;SDS011;60446;50.752;4.352;2023-04-01T00:30:25;7.93;;;0.70;;
72439;SDS011;60446;50.752;4.352;2023-04-01T00:32:53;5.50;;;0.50;;
72439;SDS011;60446;50.752;4.352;2023-04-01T00:35:20;4.22;;;0.57;;
72439;SDS011;60446;50.752;4.352;2023-04-01T00:37:48;2.55;;;0.57;;
72439;SDS011;60446;50.752;4.352;2023-04-01T00:40:35;3.58;;;0.57;;
72439;SDS011;60446;50.752;4.352;2023-04-01T00:43:17;3.67;;;0.63;;
72439;SDS011;60446;50.752;4.352;2023-04-01T00:45:47;5.00;;;0.60;;
72439;SDS011;60446;50.752;4.352;2023-04-01T00:48:16;9.52;;;0.68;;
72439;SDS011;60446;50.752;4.352;2023-04-01T00:50:53;5.10;;;0.90;;
72439;SDS011;60446;50.752;4.352;2023-04-01T00:53:26;4.18;;;0.60;;
72439;SDS011;60446;50.752;4.352;2023-04-01T00:55:58;2.43;;;0.40;;
72439;SDS011;60446;50.752;4.352;2023-04-01T00:58:33;5.22;;;0.60;;
72439;SDS011;60446;50.752;4.352;2023-04-01T01:01:06;3.55;;;0.60;;
72439;SDS011;60446;50.752;4.352;2023-04-01T01:03:35;3.95;;;0.50;;
72439;SDS011;60446;50.752;4.352;2023-04-01T01:06:26;4.40;;;0.60;;
72439;SDS011;60446;50.752;4.352;2023-04-01T01:12:11;3.50;;;0.80;;
72439;SDS011;60446;50.752;4.352;2023-04-01T01:15:16;3.33;;;0.70;;
72439;SDS011;60446;50.752;4.352;2023-04-01T01:27:32;4.60;;;1.10;;
72439;SDS011;60446;50.752;4.352;2023-04-01T01:30:20;6.35;;;0.90;;
72439;SDS011;60446;50.752;4.352;2023-04-01T01:35:49;3.85;;;1.05;;
72439;SDS011;60446;50.752;4.352;2023-04-01T01:38:21;5.30;;;0.87;;
72439;SDS011;60446;50.752;4.352;2023-04-01T01:40:58;5.55;;;1.10;;
72439;SDS011;60446;50.752;4.352;2023-04-01T01:43:46;4.65;;;1.20;;
72439;SDS011;60446;50.752;4.352;2023-04-01T01:46:19;3.22;;;0.70;;
72439;SDS011;60446;50.752;4.352;2023-04-01T01:48:50;5.60;;;1.15;;
72439;SDS011;60446;50.752;4.352;2023-04-01T01:51:19;4.17;;;0.80;;
72439;SDS011;60446;50.752;4.352;2023-04-01T01:53:48;5.68;;;0.95;;
72439;SDS011;60446;50.752;4.352;2023-04-01T01:56:17;4.10;;;0.80;;
72439;SDS011;60446;50.752;4.352;2023-04-01T01:58:49;3.42;;;0.85;;
72439;SDS011;60446;50.752;4.352;2023-04-01T02:01:25;4.90;;;0.70;;
72439;SDS011;60446;50.752;4.352;2023-04-01T02:04:04;4.03;;;0.70;;
72439;SDS011;60446;50.752;4.352;2023-04-01T02:06:32;6.43;;;0.80;;
72439;SDS011;60446;50.752;4.352;2023-04-01T02:09:04;4.80;;;0.82;;
72439;SDS011;60446;50.752;4.352;2023-04-01T02:11:46;4.80;;;0.90;;
72439;SDS011;60446;50.752;4.352;2023-04-01T02:14:21;4.95;;;1.00;;
72439;SDS011;60446;50.752;4.352;2023-04-01T02:19:36;4.80;;;1.20;;
72439;SDS011;60446;50.752;4.352;2023-04-01T02:22:15;8.57;;;1.98;;
72439;SDS011;60446;50.752;4.352;2023-04-01T02:24:48;5.75;;;1.65;;
72439;SDS011;60446;50.752;4.352;2023-04-01T02:27:20;7.88;;;1.70;;
72439;SDS011;60446;50.752;4.352;2023-04-01T02:29:47;7.00;;;1.57;;
72439;SDS011;60446;50.752;4.352;2023-04-01T02:32:15;9.10;;;1.67;;
72439;SDS011;60446;50.752;4.352;2023-04-01T02:34:46;6.80;;;1.50;;
72439;SDS011;60446;50.752;4.352;2023-04-01T02:37:14;9.05;;;1.48;;
72439;SDS011;60446;50.752;4.352;2023-04-01T02:39:42;8.05;;;1.70;;
72439;SDS011;60446;50.752;4.352;2023-04-01T02:42:10;7.50;;;1.63;;
72439;SDS011;60446;50.752;4.352;2023-04-01T02:44:37;10.38;;;1.77;;
72439;SDS011;60446;50.752;4.352;2023-04-01T02:47:04;9.32;;;2.30;;
72439;SDS011;60446;50.752;4.352;2023-04-01T02:49:31;6.80;;;1.30;;
72439;SDS011;60446;50.752;4.352;2023-04-01T02:51:59;11.07;;;1.77;;
72439;SDS011;60446;50.752;4.352;2023-04-01T02:54:26;9.27;;;1.93;;
72439;SDS011;60446;50.752;4.352;2023-04-01T02:56:53;9.43;;;1.67;;
72439;SDS011;60446;50.752;4.352;2023-04-01T02:59:20;10.90;;;1.60;;
72439;SDS011;60446;50.752;4.352;2023-04-01T03:01:47;8.02;;;1.67;;
72439;SDS011;60446;50.752;4.352;2023-04-01T03:04:14;9.02;;;2.00;;
72439;SDS011;60446;50.752;4.352;2023-04-01T03:06:42;13.27;;;2.00;;
72439;SDS011;60446;50.752;4.352;2023-04-01T03:09:09;10.25;;;2.75;;
72439;SDS011;60446;50.752;4.352;2023-04-01T03:11:36;10.77;;;2.25;;
72439;SDS011;60446;50.752;4.352;2023-04-01T03:14:04;10.45;;;2.67;;
72439;SDS011;60446;50.752;4.352;2023-04-01T03:16:31;12.73;;;2.63;;
72439;SDS011;60446;50.752;4.352;2023-04-01T03:18:58;12.83;;;2.30;;
72439;SDS011;60446;50.752;4.352;2023-04-01T03:21:28;7.88;;;1.92;;
72439;SDS011;60446;50.752;4.352;2023-04-01T03:23:55;9.25;;;2.22;;
72439;SDS011;60446;50.752;4.352;2023-04-01T03:26:22;16.83;;;3.10;;
72439;SDS011;60446;50.752;4.352;2023-04-01T03:28:49;10.40;;;2.53;;
72439;SDS011;60446;50.752;4.352;2023-04-01T03:31:16;12.33;;;2.87;;
72439;SDS011;60446;50.752;4.352;2023-04-01T03:33:50;11.10;;;3.15;;
72439;SDS011;60446;50.752;4.352;2023-04-01T03:36:18;10.00;;;2.47;;
72439;SDS011;60446;50.752;4.352;2023-04-01T03:38:45;9.00;;;2.15;;
72439;SDS011;60446;50.752;4.352;2023-04-01T03:41:18;11.32;;;2.42;;
72439;SDS011;60446;50.752;4.352;2023-04-01T03:43:45;9.77;;;2.40;;
72439;SDS011;60446;50.752;4.352;2023-04-01T03:46:16;10.45;;;2.03;;
72439;SDS011;60446;50.752;4.352;2023-04-01T03:48:46;9.82;;;2.75;;
72439;SDS011;60446;50.752;4.352;2023-04-01T03:51:13;9.48;;;2.38;;
72439;SDS011;60446;50.752;4.352;2023-04-01T03:53:41;9.52;;;2.47;;
72439;SDS011;60446;50.752;4.352;2023-04-01T03:56:08;10.13;;;2.23;;
72439;SDS011;60446;50.752;4.352;2023-04-01T03:58:36;13.60;;;2.83;;
72439;SDS011;60446;50.752;4.352;2023-04-01T04:01:16;10.00;;;2.58;;
72439;SDS011;60446;50.752;4.352;2023-04-01T04:03:53;11.50;;;2.50;;
72439;SDS011;60446;50.752;4.352;2023-04-01T04:06:21;12.57;;;3.30;;
72439;SDS011;60446;50.752;4.352;2023-04-01T04:08:50;9.00;;;2.50;;
72439;SDS011;60446;50.752;4.352;2023-04-01T04:11:18;12.10;;;3.15;;
72439;SDS011;60446;50.752;4.352;2023-04-01T04:13:46;10.20;;;2.65;;
72439;SDS011;60446;50.752;4.352;2023-04-01T04:16:15;11.25;;;3.50;;
72439;SDS011;60446;50.752;4.352;2023-04-01T04:18:47;15.38;;;3.30;;
72439;SDS011;60446;50.752;4.352;2023-04-01T04:21:16;11.30;;;2.67;;
72439;SDS011;60446;50.752;4.352;2023-04-01T04:23:43;11.10;;;2.50;;
72439;SDS011;60446;50.752;4.352;2023-04-01T04:26:13;12.48;;;2.78;;
72439;SDS011;60446;50.752;4.352;2023-04-01T04:28:45;10.80;;;2.70;;
72439;SDS011;60446;50.752;4.352;2023-04-01T04:31:18;12.20;;;2.95;;
72439;SDS011;60446;50.752;4.352;2023-04-01T04:33:51;10.17;;;2.63;;
72439;SDS011;60446;50.752;4.352;2023-04-01T04:36:19;8.77;;;2.50;;
72439;SDS011;60446;50.752;4.352;2023-04-01T04:38:49;13.02;;;2.65;;
72439;SDS011;60446;50.752;4.352;2023-04-01T04:41:17;10.82;;;3.03;;
72439;SDS011;60446;50.752;4.352;2023-04-01T04:43:52;10.65;;;3.22;;
72439;SDS011;60446;50.752;4.352;2023-04-01T04:46:23;12.17;;;2.70;;
72439;SDS011;60446;50.752;4.352;2023-04-01T04:48:57;12.35;;;2.88;;
72439;SDS011;60446;50.752;4.352;2023-04-01T04:51:25;8.90;;;2.65;;
72439;SDS011;60446;50.752;4.352;2023-04-01T04:53:52;11.57;;;2.33;;
72439;SDS011;60446;50.752;4.352;2023-04-01T04:56:28;9.00;;;2.10;;
72439;SDS011;60446;50.752;4.352;2023-04-01T04:59:07;10.17;;;2.20;;
72439;SDS011;60446;50.752;4.352;2023-04-01T05:01:46;6.95;;;1.95;;
72439;SDS011;60446;50.752;4.352;2023-04-01T05:04:14;8.65;;;1.98;;
72439;SDS011;60446;50.752;4.352;2023-04-01T05:06:42;9.90;;;2.20;;
72439;SDS011;60446;50.752;4.352;2023-04-01T05:09:11;9.15;;;2.33;;
72439;SDS011;60446;50.752;4.352;2023-04-01T05:11:39;7.83;;;2.37;;
72439;SDS011;60446;50.752;4.352;2023-04-01T05:14:11;8.82;;;2.10;;
72439;SDS011;60446;50.752;4.352;2023-04-01T05:16:48;8.02;;;1.98;;
72439;SDS011;60446;50.752;4.352;2023-04-01T05:19:16;9.07;;;2.00;;
72439;SDS011;60446;50.752;4.352;2023-04-01T05:21:44;8.82;;;1.85;;
72439;SDS011;60446;50.752;4.352;2023-04-01T05:24:11;8.27;;;1.77;;
72439;SDS011;60446;50.752;4.352;2023-04-01T05:26:38;7.88;;;1.70;;
72439;SDS011;60446;50.752;4.352;2023-04-01T05:29:05;8.32;;;2.05;;
72439;SDS011;60446;50.752;4.352;2023-04-01T05:31:33;8.48;;;1.90;;
72439;SDS011;60446;50.752;4.352;2023-04-01T05:34:01;8.73;;;2.15;;
72439;SDS011;60446;50.752;4.352;2023-04-01T05:36:28;7.67;;;1.77;;
72439;SDS011;60446;50.752;4.352;2023-04-01T05:38:56;9.00;;;2.35;;
72439;SDS011;60446;50.752;4.352;2023-04-01T05:41:25;11.65;;;2.40;;
72439;SDS011;60446;50.752;4.352;2023-04-01T05:43:52;10.13;;;2.10;;
72439;SDS011;60446;50.752;4.352;2023-04-01T05:46:42;8.18;;;1.48;;
72439;SDS011;60446;50.752;4.352;2023-04-01T05:49:19;6.90;;;1.53;;
72439;SDS011;60446;50.752;4.352;2023-04-01T05:51:48;8.93;;;1.60;;
72439;SDS011;60446;50.752;4.352;2023-04-01T05:54:16;7.60;;;2.03;;
72439;SDS011;60446;50.752;4.352;2023-04-01T05:56:44;7.95;;;1.60;;
72439;SDS011;60446;50.752;4.352;2023-04-01T05:59:14;8.55;;;1.75;;
72439;SDS011;60446;50.752;4.352;2023-04-01T06:01:41;6.83;;;1.63;;
72439;SDS011;60446;50.752;4.352;2023-04-01T06:04:11;7.70;;;1.90;;
72439;SDS011;60446;50.752;4.352;2023-04-01T06:06:42;8.13;;;1.83;;
72439;SDS011;60446;50.752;4.352;2023-04-01T06:09:29;12.90;;;2.45;;
72439;SDS011;60446;50.752;4.352;2023-04-01T06:24:25;11.90;;;3.47;;
72439;SDS011;60446;50.752;4.352;2023-04-01T06:27:36;12.23;;;3.63;;
72439;SDS011;60446;50.752;4.352;2023-04-01T06:30:39;11.30;;;3.27;;
72439;SDS011;60446;50.752;4.352;2023-04-01T06:36:12;12.93;;;3.35;;
72439;SDS011;60446;50.752;4.352;2023-04-01T06:56:33;9.30;;;2.13;;
72439;SDS011;60446;50.752;4.352;2023-04-01T06:59:17;8.47;;;2.60;;
72439;SDS011;60446;50.752;4.352;2023-04-01T07:01:50;11.48;;;2.60;;
72439;SDS011;60446;50.752;4.352;2023-04-01T07:04:46;8.77;;;2.55;;
72439;SDS011;60446;50.752;4.352;2023-04-01T07:10:15;7.40;;;1.92;;
72439;SDS011;60446;50.752;4.352;2023-04-01T07:13:28;10.73;;;2.20;;
72439;SDS011;60446;50.752;4.352;2023-04-01T07:16:15;8.93;;;1.90;;
72439;SDS011;60446;50.752;4.352;2023-04-01T07:25:01;11.95;;;2.08;;
72439;SDS011;60446;50.752;4.352;2023-04-01T07:27:43;7.73;;;2.27;;
72439;SDS011;60446;50.752;4.352;2023-04-01T07:30:13;8.15;;;1.77;;
72439;SDS011;60446;50.752;4.352;2023-04-01T07:32:47;9.23;;;2.03;;
72439;SDS011;60446;50.752;4.352;2023-04-01T07:35:31;7.97;;;2.28;;
72439;SDS011;60446;50.752;4.352;2023-04-01T07:55:15;4.43;;;0.80;;
72439;SDS011;60446;50.752;4.352;2023-04-01T08:04:24;5.10;;;0.85;;
72439;SDS011;60446;50.752;4.352;2023-04-01T08:07:18;4.68;;;1.08;;
72439;SDS011;60446;50.752;4.352;2023-04-01T08:13:33;5.75;;;1.02;;
72439;SDS011;60446;50.752;4.352;2023-04-01T08:16:57;4.68;;;0.90;;
72439;SDS011;60446;50.752;4.352;2023-04-01T08:19:56;4.22;;;0.90;;
72439;SDS011;60446;50.752;4.352;2023-04-01T08:22:41;6.57;;;1.23;;
72439;SDS011;60446;50.752;4.352;2023-04-01T08:25:22;4.60;;;1.03;;
72439;SDS011;60446;50.752;4.352;2023-04-01T08:28:09;4.90;;;0.70;;
72439;SDS011;60446;50.752;4.352;2023-04-01T08:30:57;5.82;;;1.00;;
72439;SDS011;60446;50.752;4.352;2023-04-01T08:33:31;4.10;;;0.63;;
72439;SDS011;60446;50.752;4.352;2023-04-01T08:36:08;3.85;;;1.05;;
72439;SDS011;60446;50.752;4.352;2023-04-01T08:39:18;3.73;;;0.80;;
72439;SDS011;60446;50.752;4.352;2023-04-01T08:45:42;4.57;;;1.00;;
72439;SDS011;60446;50.752;4.352;2023-04-01T09:06:35;2.92;;;0.60;;
72439;SDS011;60446;50.752;4.352;2023-04-01T09:09:40;8.67;;;0.77;;
72439;SDS011;60446;50.752;4.352;2023-04-01T09:17:39;3.70;;;0.65;;
72439;SDS011;60446;50.752;4.352;2023-04-01T09:29:22;3.10;;;0.73;;
72439;SDS011;60446;50.752;4.352;2023-04-01T09:32:42;2.63;;;0.77;;
72439;SDS011;60446;50.752;4.352;2023-04-01T09:44:47;4.78;;;1.40;;
72439;SDS011;60446;50.752;4.352;2023-04-01T09:56:38;2.95;;;0.68;;
72439;SDS011;60446;50.752;4.352;2023-04-01T10:05:32;4.07;;;0.80;;
72439;SDS011;60446;50.752;4.352;2023-04-01T10:26:18;3.40;;;0.80;;
72439;SDS011;60446;50.752;4.352;2023-04-01T10:35:18;4.40;;;1.20;;
72439;SDS011;60446;50.752;4.352;2023-04-01T10:38:29;3.50;;;0.70;;
72439;SDS011;60446;50.752;4.352;2023-04-01T10:48:22;4.45;;;0.95;;
72439;SDS011;60446;50.752;4.352;2023-04-01T10:56:59;3.63;;;0.88;;
72439;SDS011;60446;50.752;4.352;2023-04-01T11:16:18;4.93;;;1.02;;
72439;SDS011;60446;50.752;4.352;2023-04-01T11:25:51;3.23;;;0.80;;
72439;SDS011;60446;50.752;4.352;2023-04-01T11:29:09;3.30;;;0.73;;
72439;SDS011;60446;50.752;4.352;2023-04-01T11:34:56;5.00;;;1.00;;
72439;SDS011;60446;50.752;4.352;2023-04-01T11:40:54;3.87;;;0.83;;
72439;SDS011;60446;50.752;4.352;2023-04-01T11:44:23;4.20;;;0.80;;
72439;SDS011;60446;50.752;4.352;2023-04-01T12:05:03;3.40;;;0.88;;
72439;SDS011;60446;50.752;4.352;2023-04-01T12:11:15;2.43;;;0.53;;
72439;SDS011;60446;50.752;4.352;2023-04-01T12:13:59;2.22;;;0.50;;
72439;SDS011;60446;50.752;4.352;2023-04-01T12:16:47;3.47;;;0.80;;
72439;SDS011;60446;50.752;4.352;2023-04-01T12:19:26;2.70;;;0.57;;
72439;SDS011;60446;50.752;4.352;2023-04-01T12:34:24;2.55;;;0.60;;
72439;SDS011;60446;50.752;4.352;2023-04-01T12:40:30;4.60;;;1.10;;
72439;SDS011;60446;50.752;4.352;2023-04-01T12:48:51;5.00;;;1.50;;
72439;SDS011;60446;50.752;4.352;2023-04-01T12:54:48;5.93;;;1.67;;
72439;SDS011;60446;50.752;4.352;2023-04-01T12:57:59;5.03;;;1.30;;
72439;SDS011;60446;50.752;4.352;2023-04-01T13:12:51;7.63;;;1.58;;
72439;SDS011;60446;50.752;4.352;2023-04-01T13:15:32;6.22;;;1.52;;
72439;SDS011;60446;50.752;4.352;2023-04-01T13:33:04;5.45;;;1.60;;
72439;SDS011;60446;50.752;4.352;2023-04-01T13:35:53;5.78;;;1.50;;
72439;SDS011;60446;50.752;4.352;2023-04-01T13:38:42;5.90;;;1.30;;
72439;SDS011;60446;50.752;4.352;2023-04-01T13:47:23;6.75;;;1.50;;
72439;SDS011;60446;50.752;4.352;2023-04-01T13:53:35;5.17;;;1.30;;
72439;SDS011;60446;50.752;4.352;2023-04-01T14:02:07;5.20;;;1.23;;
72439;SDS011;60446;50.752;4.352;2023-04-01T14:25:17;3.95;;;1.10;;
72439;SDS011;60446;50.752;4.352;2023-04-01T14:48:53;3.25;;;0.63;;
72439;SDS011;60446;50.752;4.352;2023-04-01T14:56:35;2.90;;;0.60;;
72439;SDS011;60446;50.752;4.352;2023-04-01T15:02:02;3.45;;;0.60;;
72439;SDS011;60446;50.752;4.352;2023-04-01T15:15:57;3.83;;;0.57;;
72439;SDS011;60446;50.752;4.352;2023-04-01T15:19:05;2.93;;;0.70;;
72439;SDS011;60446;50.752;4.352;2023-04-01T15:30:21;2.78;;;0.60;;
72439;SDS011;60446;50.752;4.352;2023-04-01T15:47:36;2.90;;;0.60;;
72439;SDS011;60446;50.752;4.352;2023-04-01T16:07:55;3.15;;;0.80;;
72439;SDS011;60446;50.752;4.352;2023-04-01T16:13:54;2.75;;;0.45;;
72439;SDS011;60446;50.752;4.352;2023-04-01T16:19:33;3.25;;;0.45;;
72439;SDS011;60446;50.752;4.352;2023-04-01T16:24:47;3.10;;;0.70;;
72439;SDS011;60446;50.752;4.352;2023-04-01T16:30:03;3.40;;;0.80;;
72439;SDS011;60446;50.752;4.352;2023-04-01T16:33:38;3.60;;;0.73;;
72439;SDS011;60446;50.752;4.352;2023-04-01T16:47:45;3.53;;;0.57;;
72439;SDS011;60446;50.752;4.352;2023-04-01T16:50:25;3.67;;;0.90;;
72439;SDS011;60446;50.752;4.352;2023-04-01T16:53:14;4.18;;;0.80;;
72439;SDS011;60446;50.752;4.352;2023-04-01T17:01:53;2.97;;;0.70;;
72439;SDS011;60446;50.752;4.352;2023-04-01T17:04:40;4.07;;;1.23;;
72439;SDS011;60446;50.752;4.352;2023-04-01T17:13:34;4.13;;;1.00;;
72439;SDS011;60446;50.752;4.352;2023-04-01T17:25:24;4.25;;;1.00;;
72439;SDS011;60446;50.752;4.352;2023-04-01T17:31:26;5.15;;;0.98;;
72439;SDS011;60446;50.752;4.352;2023-04-01T17:45:56;4.72;;;0.95;;
72439;SDS011;60446;50.752;4.352;2023-04-01T17:48:37;5.13;;;1.40;;
72439;SDS011;60446;50.752;4.352;2023-04-01T18:00:22;4.60;;;1.30;;
72439;SDS011;60446;50.752;4.352;2023-04-01T18:06:50;4.85;;;1.45;;
72439;SDS011;60446;50.752;4.352;2023-04-01T18:12:51;4.70;;;1.47;;
72439;SDS011;60446;50.752;4.352;2023-04-01T18:15:42;4.57;;;1.23;;
72439;SDS011;60446;50.752;4.352;2023-04-01T18:24:35;6.13;;;1.35;;
72439;SDS011;60446;50.752;4.352;2023-04-01T18:30:15;6.18;;;1.70;;
72439;SDS011;60446;50.752;4.352;2023-04-01T18:38:38;6.68;;;2.05;;
72439;SDS011;60446;50.752;4.352;2023-04-01T18:41:14;5.80;;;1.60;;
72439;SDS011;60446;50.752;4.352;2023-04-01T18:52:58;6.80;;;1.92;;
72439;SDS011;60446;50.752;4.352;2023-04-01T18:55:55;6.00;;;1.90;;
72439;SDS011;60446;50.752;4.352;2023-04-01T18:59:34;6.07;;;1.77;;
72439;SDS011;60446;50.752;4.352;2023-04-01T19:01:52;7.57;;;2.47;;
72439;SDS011;60446;50.752;4.352;2023-04-01T19:04:47;6.40;;;2.42;;
72439;SDS011;60446;50.752;4.352;2023-04-01T19:07:40;5.43;;;1.35;;
72439;SDS011;60446;50.752;4.352;2023-04-01T19:25:48;8.67;;;2.70;;
72439;SDS011;60446;50.752;4.352;2023-04-01T19:36:48;13.98;;;4.70;;
72439;SDS011;60446;50.752;4.352;2023-04-01T19:45:54;15.68;;;5.05;;
72439;SDS011;60446;50.752;4.352;2023-04-01T20:00:05;22.92;;;5.93;;
72439;SDS011;60446;50.752;4.352;2023-04-01T20:08:52;18.40;;;5.87;;
72439;SDS011;60446;50.752;4.352;2023-04-01T20:12:03;16.00;;;5.63;;
72439;SDS011;60446;50.752;4.352;2023-04-01T20:14:40;14.63;;;5.75;;
72439;SDS011;60446;50.752;4.352;2023-04-01T20:25:21;19.60;;;6.45;;
72439;SDS011;60446;50.752;4.352;2023-04-01T20:27:51;18.67;;;6.75;;
72439;SDS011;60446;50.752;4.352;2023-04-01T20:30:37;20.33;;;6.28;;
72439;SDS011;60446;50.752;4.352;2023-04-01T20:42:00;15.45;;;5.30;;
72439;SDS011;60446;50.752;4.352;2023-04-01T20:44:41;21.13;;;6.20;;
72439;SDS011;60446;50.752;4.352;2023-04-01T20:50:29;15.30;;;5.57;;
72439;SDS011;60446;50.752;4.352;2023-04-01T20:53:15;19.92;;;6.72;;
72439;SDS011;60446;50.752;4.352;2023-04-01T20:56:06;18.10;;;5.68;;
72439;SDS011;60446;50.752;4.352;2023-04-01T21:14:49;17.92;;;7.18;;
72439;SDS011;60446;50.752;4.352;2023-04-01T21:26:33;14.35;;;5.93;;
72439;SDS011;60446;50.752;4.352;2023-04-01T21:29:43;18.88;;;6.47;;
72439;SDS011;60446;50.752;4.352;2023-04-01T21:32:20;19.97;;;6.50;;
72439;SDS011;60446;50.752;4.352;2023-04-01T21:34:59;20.92;;;6.97;;
72439;SDS011;60446;50.752;4.352;2023-04-01T21:37:49;20.20;;;6.90;;
72439;SDS011;60446;50.752;4.352;2023-04-01T21:43:39;21.25;;;7.30;;
72439;SDS011;60446;50.752;4.352;2023-04-01T21:46:38;24.27;;;5.90;;
72439;SDS011;60446;50.752;4.352;2023-04-01T21:56:22;23.80;;;6.53;;
72439;SDS011;60446;50.752;4.352;2023-04-01T22:02:42;21.63;;;6.40;;
72439;SDS011;60446;50.752;4.352;2023-04-01T22:08:33;18.75;;;5.90;;
72439;SDS011;60446;50.752;4.352;2023-04-01T22:14:28;18.70;;;6.18;;
72439;SDS011;60446;50.752;4.352;2023-04-01T22:26:02;16.30;;;4.90;;
72439;SDS011;60446;50.752;4.352;2023-04-01T22:29:05;15.95;;;4.82;;
72439;SDS011;60446;50.752;4.352;2023-04-01T22:31:40;13.43;;;4.70;;
72439;SDS011;60446;50.752;4.352;2023-04-01T22:34:31;14.93;;;4.97;;
72439;SDS011;60446;50.752;4.352;2023-04-01T22:40:30;18.02;;;5.43;;
72439;SDS011;60446;50.752;4.352;2023-04-01T22:43:08;16.50;;;4.70;;
72439;SDS011;60446;50.752;4.352;2023-04-01T22:45:52;19.57;;;5.67;;
72439;SDS011;60446;50.752;4.352;2023-04-01T22:48:45;15.98;;;5.10;;
72439;SDS011;60446;50.752;4.352;2023-04-01T22:51:42;16.83;;;5.57;;
72439;SDS011;60446;50.752;4.352;2023-04-01T22:54:31;16.58;;;5.57;;
72439;SDS011;60446;50.752;4.352;2023-04-01T22:57:11;20.50;;;6.80;;
72439;SDS011;60446;50.752;4.352;2023-04-01T23:05:54;18.75;;;6.10;;
72439;SDS011;60446;50.752;4.352;2023-04-01T23:31:35;15.65;;;5.13;;
72439;SDS011;60446;50.752;4.352;2023-04-01T23:36:42;18.75;;;5.57;;
72439;SDS011;60446;50.752;4.352;2023-04-01T23:41:59;20.33;;;5.30;;
72439;SDS011;60446;50.752;4.352;2023-04-01T23:44:40;18.35;;;5.75;;
72439;SDS011;60446;50.752;4.352;2023-04-01T23:47:12;20.23;;;5.55;;
72439;SDS011;60446;50.752;4.352;2023-04-01T23:50:04;18.15;;;5.43;;
72439;SDS011;60446;50.752;4.352;2023-04-01T23:52:41;16.50;;;5.75;;
72439;SDS011;60446;50.752;4.352;2023-04-01T23:55:28;19.03;;;5.40;;
72439;SDS011;60446;50.752;4.352;2023-04-01T23:58:16;19.33;;;5.78;;
